createdAt,value
2022-11-14T00:00:06.183Z,30.10
2022-11-14T00:05:26.981Z,31.13
2022-11-14T00:10:48.783Z,32.20
2022-11-14T00:16:10.208Z,37.00
2022-11-14T00:21:30.133Z,38.78
2022-11-14T00:26:50.331Z,37.78
2022-11-14T00:32:10.478Z,38.90
2022-11-14T00:37:30.819Z,35.28
2022-11-14T00:42:50.993Z,32.40
2022-11-14T00:48:11.483Z,33.58
2022-11-14T00:53:31.958Z,38.38
2022-11-14T00:58:52.057Z,35.08
2022-11-14T01:04:12.203Z,38.65
2022-11-14T01:09:32.677Z,37.88
2022-11-14T01:14:52.720Z,36.45
2022-11-14T01:20:13.126Z,33.97
2022-11-14T01:25:35.069Z,29.77
2022-11-14T01:30:55.010Z,38.13
2022-11-14T01:36:15.338Z,33.53
2022-11-14T01:41:35.769Z,33.33
2022-11-14T01:46:57.056Z,38.25
2022-11-14T01:52:22.892Z,35.28
2022-11-14T01:57:47.099Z,35.80
2022-11-14T02:03:07.236Z,40.83
2022-11-14T02:08:27.891Z,38.30
2022-11-14T02:13:48.901Z,40.92
2022-11-14T02:19:09.928Z,39.22
2022-11-14T02:24:29.992Z,35.45
2022-11-14T02:29:50.283Z,35.30
2022-11-14T02:35:11.155Z,32.67
2022-11-14T02:40:31.432Z,36.80
2022-11-14T02:45:52.002Z,40.60
2022-11-14T02:51:12.031Z,42.65
2022-11-14T02:56:32.475Z,37.17
2022-11-14T03:01:52.669Z,35.47
2022-11-14T03:07:13.229Z,35.08
2022-11-14T03:12:34.372Z,32.38
2022-11-14T03:17:54.597Z,40.60
2022-11-14T03:23:15.466Z,34.33
2022-11-14T03:28:37.448Z,36.25
2022-11-14T03:33:58.000Z,32.83
2022-11-14T03:39:18.398Z,33.28
2022-11-14T03:44:39.301Z,35.53
2022-11-14T03:49:59.938Z,32.60
2022-11-14T03:55:20.797Z,29.30
2022-11-14T04:00:41.060Z,30.17
2022-11-14T04:06:01.450Z,28.38
2022-11-14T04:11:21.624Z,28.65
2022-11-14T04:16:42.154Z,24.48
2022-11-14T04:22:02.711Z,27.92
2022-11-14T04:27:22.669Z,28.92
2022-11-14T04:32:45.421Z,24.67
2022-11-14T04:38:05.404Z,27.83
2022-11-14T04:43:25.690Z,26.95
2022-11-14T04:48:46.111Z,26.75
2022-11-14T04:54:06.387Z,29.50
2022-11-14T04:59:26.693Z,28.55
2022-11-14T05:04:48.439Z,27.45
2022-11-14T05:10:09.482Z,27.75
2022-11-14T05:15:29.436Z,31.52
2022-11-14T05:20:49.643Z,34.35
2022-11-14T05:26:12.492Z,32.25
2022-11-14T05:31:32.951Z,31.90
2022-11-14T05:36:53.530Z,32.97
2022-11-14T05:42:13.519Z,32.45
2022-11-14T05:47:33.822Z,31.08
2022-11-14T05:52:54.038Z,30.80
2022-11-14T05:58:14.355Z,32.97
2022-11-14T06:03:37.853Z,28.05
2022-11-14T06:08:58.168Z,27.88
2022-11-14T06:14:18.403Z,34.45
2022-11-14T06:19:38.803Z,27.58
2022-11-14T06:24:58.968Z,27.48
2022-11-14T06:30:19.441Z,34.00
2022-11-14T06:35:39.579Z,26.13
2022-11-14T06:41:06.535Z,24.88
2022-11-14T06:46:26.588Z,26.23
2022-11-14T06:51:46.750Z,28.98
2022-11-14T06:57:07.136Z,28.08
2022-11-14T07:02:27.453Z,27.85
2022-11-14T07:07:47.839Z,27.20
2022-11-14T07:13:09.698Z,28.02
2022-11-14T07:18:31.987Z,31.90
2022-11-14T07:23:52.762Z,27.60
2022-11-14T07:29:12.709Z,28.98
2022-11-14T07:34:32.992Z,29.65
2022-11-14T07:39:53.340Z,28.27
2022-11-14T07:45:13.687Z,30.55
2022-11-14T07:50:34.038Z,27.58
2022-11-14T07:55:54.656Z,29.83
2022-11-14T08:01:15.127Z,31.50
2022-11-14T08:06:35.398Z,26.42
2022-11-14T08:11:55.684Z,30.58
2022-11-14T08:17:15.873Z,29.95
2022-11-14T08:22:36.325Z,28.70
2022-11-14T08:27:56.454Z,25.50
2022-11-14T08:33:16.993Z,26.92
2022-11-14T08:38:37.446Z,27.98
2022-11-14T08:43:58.160Z,23.23
2022-11-14T08:49:18.520Z,25.00
2022-11-14T08:54:38.745Z,23.33
2022-11-14T08:59:59.147Z,21.08
2022-11-14T09:05:19.514Z,21.48
2022-11-14T09:10:39.768Z,21.60
2022-11-14T09:16:00.231Z,19.83
2022-11-14T09:21:20.465Z,19.55
2022-11-14T09:26:40.712Z,19.52
2022-11-14T09:32:00.909Z,16.73
2022-11-14T09:37:21.190Z,16.50
2022-11-14T09:42:59.610Z,15.88
2022-11-14T09:48:28.123Z,17.30
2022-11-14T09:53:52.206Z,15.85
2022-11-14T09:59:14.181Z,17.20
2022-11-14T10:04:59.098Z,19.00
2022-11-14T10:10:54.670Z,21.65
2022-11-14T10:16:23.852Z,18.98
2022-11-14T10:21:54.864Z,19.90
2022-11-14T10:28:05.539Z,17.27
2022-11-14T10:33:34.277Z,16.65
2022-11-14T10:39:04.172Z,14.90
2022-11-14T10:44:30.964Z,17.65
2022-11-14T10:49:56.063Z,16.30
2022-11-14T10:55:18.720Z,17.10
2022-11-14T11:00:39.058Z,17.02
2022-11-14T11:05:59.428Z,18.20
2022-11-14T11:11:31.926Z,17.70
2022-11-14T11:17:08.565Z,16.38
2022-11-14T11:22:39.002Z,18.10
2022-11-14T11:28:11.467Z,17.25
2022-11-14T11:33:43.008Z,17.35
2022-11-14T11:39:03.284Z,18.48
2022-11-14T11:44:33.848Z,14.68
2022-11-14T11:49:55.048Z,20.95
2022-11-14T11:55:20.696Z,19.02
2022-11-14T12:00:41.029Z,18.33
2022-11-14T12:06:14.394Z,18.08
2022-11-14T12:11:37.786Z,17.23
2022-11-14T12:17:47.471Z,20.08
2022-11-14T12:23:26.446Z,16.15
2022-11-14T12:28:59.109Z,16.23
2022-11-14T12:34:31.771Z,16.35
2022-11-14T12:40:00.409Z,18.83
2022-11-14T12:45:42.139Z,16.58
2022-11-14T12:51:04.880Z,18.13
2022-11-14T12:56:31.113Z,17.50
2022-11-14T13:01:54.186Z,22.55
2022-11-14T13:07:59.048Z,17.45
2022-11-14T13:13:37.958Z,21.77
2022-11-14T13:19:32.181Z,17.55
2022-11-14T13:24:58.503Z,17.67
2022-11-14T13:30:18.716Z,20.42
2022-11-14T13:35:48.960Z,21.00
2022-11-14T13:41:47.757Z,18.25
2022-11-14T13:47:20.764Z,18.67
2022-11-14T13:52:46.915Z,19.75
2022-11-14T13:58:28.735Z,18.98
2022-11-14T14:04:07.645Z,17.98
2022-11-14T14:09:37.857Z,20.88
2022-11-14T14:15:33.392Z,22.10
2022-11-14T14:21:04.907Z,21.55
2022-11-14T14:26:31.463Z,20.20
2022-11-14T14:31:51.977Z,20.15
2022-11-14T14:37:30.472Z,20.10
2022-11-14T14:42:51.265Z,22.95
2022-11-14T14:48:18.771Z,21.30
2022-11-14T14:53:39.142Z,21.30
2022-11-14T14:58:59.231Z,23.30
2022-11-14T15:04:21.241Z,24.15
2022-11-14T15:09:51.603Z,27.63
2022-11-14T15:15:16.579Z,24.20
2022-11-14T15:20:36.897Z,25.42
2022-11-14T15:26:06.078Z,25.85
2022-11-14T15:31:26.077Z,25.13
2022-11-14T15:37:08.602Z,28.52
2022-11-14T15:42:29.246Z,30.13
2022-11-14T15:47:58.575Z,37.17
2022-11-14T15:53:28.446Z,29.20
2022-11-14T15:58:49.600Z,26.02
2022-11-14T16:04:34.498Z,34.25
2022-11-14T16:09:55.387Z,28.40
2022-11-14T16:15:16.702Z,25.48
2022-11-14T16:20:39.709Z,33.72
2022-11-14T16:25:59.590Z,31.60
2022-11-14T16:31:20.622Z,29.33
2022-11-14T16:36:40.901Z,29.38
2022-11-14T16:42:04.646Z,27.63
2022-11-14T16:47:24.617Z,29.27
2022-11-14T16:52:45.024Z,36.55
2022-11-14T16:58:05.304Z,30.23
2022-11-14T17:03:25.561Z,32.88
2022-11-14T17:08:45.854Z,24.13
2022-11-14T17:14:06.211Z,30.83
2022-11-14T17:19:26.448Z,30.80
2022-11-14T17:24:46.700Z,38.83
2022-11-14T17:30:08.654Z,38.67
2022-11-14T17:35:28.633Z,39.45
2022-11-14T17:40:48.957Z,36.03
2022-11-14T17:46:15.639Z,39.85
2022-11-14T17:51:36.715Z,48.58
2022-11-14T17:56:58.222Z,48.72
2022-11-14T18:02:19.386Z,47.83
2022-11-14T18:07:39.674Z,50.50
2022-11-14T18:13:03.922Z,58.35
2022-11-14T18:18:23.784Z,51.10
2022-11-14T18:23:44.363Z,52.03
2022-11-14T18:29:04.523Z,46.20
2022-11-14T18:34:24.786Z,49.50
2022-11-14T18:39:45.165Z,45.45
2022-11-14T18:45:06.143Z,56.45
2022-11-14T18:50:26.213Z,51.78
2022-11-14T18:55:47.648Z,51.00
2022-11-14T19:01:29.683Z,55.30
2022-11-14T19:06:50.497Z,53.80
2022-11-14T19:12:21.690Z,51.90
2022-11-14T19:17:43.072Z,53.38
2022-11-14T19:23:03.294Z,61.70
2022-11-14T19:28:27.841Z,61.08
2022-11-14T19:33:48.347Z,60.42
2022-11-14T19:39:08.600Z,60.70
2022-11-14T19:44:28.618Z,57.28
2022-11-14T19:49:49.722Z,67.75
2022-11-14T19:55:09.767Z,57.80
2022-11-14T20:00:29.880Z,60.92
2022-11-14T20:05:50.220Z,62.83
2022-11-14T20:11:11.433Z,68.13
2022-11-14T20:16:34.500Z,63.97
2022-11-14T20:21:54.757Z,63.83
2022-11-14T20:27:15.209Z,68.97
2022-11-14T20:32:35.557Z,70.95
2022-11-14T20:37:59.387Z,60.40
2022-11-14T20:43:23.340Z,59.45
2022-11-14T20:48:44.222Z,62.95
2022-11-14T20:54:04.616Z,68.05
2022-11-14T20:59:24.888Z,65.57
2022-11-14T21:04:45.270Z,65.82
2022-11-14T21:10:24.088Z,69.20
2022-11-14T21:15:44.413Z,61.03
2022-11-14T21:21:10.952Z,65.90
2022-11-14T21:26:33.673Z,68.95
2022-11-14T21:31:54.646Z,74.65
2022-11-14T21:37:14.593Z,71.03
2022-11-14T21:42:34.862Z,76.65
2022-11-14T21:47:55.162Z,63.63
2022-11-14T21:53:18.260Z,66.40
2022-11-14T21:58:38.807Z,74.35
2022-11-14T22:04:13.635Z,68.68
2022-11-14T22:09:34.805Z,69.70
2022-11-14T22:14:54.945Z,70.13
2022-11-14T22:20:15.462Z,68.95
2022-11-14T22:25:35.668Z,61.15
2022-11-14T22:31:07.311Z,68.18
2022-11-14T22:36:28.239Z,75.97
2022-11-14T22:41:48.408Z,73.35
2022-11-14T22:47:08.760Z,67.43
2022-11-14T22:52:29.966Z,69.60
2022-11-14T22:57:50.178Z,72.53
2022-11-14T23:03:10.341Z,65.25
2022-11-14T23:08:30.682Z,74.43
2022-11-14T23:13:52.886Z,73.75
2022-11-14T23:19:12.978Z,63.78
2022-11-14T23:24:33.107Z,60.80
2022-11-14T23:29:53.245Z,61.28
2022-11-14T23:35:13.574Z,60.65
2022-11-14T23:40:33.792Z,60.22
2022-11-14T23:45:53.980Z,67.57
2022-11-14T23:51:14.218Z,59.10
2022-11-14T23:56:34.692Z,59.97
